createdAt,value
2018-12-13T00:02:03.677Z,0.93
2018-12-13T00:04:32.931Z,1.08
2018-12-13T00:07:01.802Z,1.15
2018-12-13T00:09:30.665Z,1.10
2018-12-13T00:11:59.596Z,1.23
2018-12-13T00:14:28.438Z,1.37
2018-12-13T00:16:57.258Z,1.21
2018-12-13T00:19:26.170Z,1.25
2018-12-13T00:21:55.004Z,1.35
2018-12-13T00:24:23.861Z,1.32
2018-12-13T00:26:52.754Z,1.44
2018-12-13T00:29:21.729Z,1.52
2018-12-13T00:31:50.593Z,1.46
2018-12-13T00:34:19.455Z,1.38
2018-12-13T00:36:48.316Z,1.31
2018-12-13T00:39:17.140Z,1.28
2018-12-13T00:41:46.115Z,1.13
2018-12-13T00:44:14.934Z,1.05
2018-12-13T00:46:43.852Z,0.93
2018-12-13T00:49:12.770Z,0.69
2018-12-13T00:51:41.596Z,0.63
2018-12-13T00:54:10.473Z,0.62
2018-12-13T00:56:39.408Z,0.75
2018-12-13T00:59:08.350Z,0.71
2018-12-13T01:01:37.187Z,0.64
2018-12-13T01:04:06.127Z,0.69
2018-12-13T01:06:34.951Z,0.50
2018-12-13T01:09:04.858Z,0.31
2018-12-13T01:11:33.792Z,0.36
2018-12-13T01:14:02.668Z,0.36
2018-12-13T01:16:31.519Z,0.38
2018-12-13T01:19:00.375Z,0.32
2018-12-13T01:21:29.560Z,0.39
2018-12-13T01:23:58.420Z,0.17
2018-12-13T01:26:27.257Z,0.18
2018-12-13T01:28:56.163Z,0.24
2018-12-13T01:31:25.011Z,0.28
2018-12-13T01:33:53.849Z,0.33
2018-12-13T01:36:22.890Z,0.36
2018-12-13T01:38:51.743Z,0.32
2018-12-13T01:41:20.633Z,0.31
2018-12-13T01:43:49.528Z,0.43
2018-12-13T01:46:18.430Z,0.39
2018-12-13T01:48:47.296Z,0.36
2018-12-13T01:51:16.300Z,0.33
2018-12-13T01:53:45.216Z,0.38
2018-12-13T01:56:14.052Z,0.40
2018-12-13T01:58:42.898Z,0.37
2018-12-13T02:01:11.777Z,0.18
2018-12-13T02:03:40.619Z,0.24
2018-12-13T02:06:09.489Z,0.28
2018-12-13T02:08:38.415Z,0.25
2018-12-13T02:11:07.257Z,0.34
2018-12-13T02:13:36.280Z,0.33
2018-12-13T02:16:05.224Z,0.39
2018-12-13T02:18:34.043Z,0.41
2018-12-13T02:21:03.305Z,0.46
2018-12-13T02:23:32.169Z,0.44
2018-12-13T02:26:01.011Z,0.46
2018-12-13T02:28:29.899Z,0.52
2018-12-13T02:30:58.788Z,0.50
2018-12-13T02:33:27.802Z,0.52
2018-12-13T02:35:56.696Z,0.53
2018-12-13T02:38:25.662Z,0.50
2018-12-13T02:40:54.609Z,0.51
2018-12-13T02:43:23.436Z,0.32
2018-12-13T02:45:52.492Z,-0.04
2018-12-13T02:48:21.341Z,-0.07
2018-12-13T02:50:50.171Z,0.02
2018-12-13T02:53:25.554Z,0.07
2018-12-13T02:55:54.397Z,0.18
2018-12-13T02:58:23.228Z,0.28
2018-12-13T03:00:52.127Z,0.32
2018-12-13T03:03:20.961Z,0.39
2018-12-13T03:05:49.789Z,0.45
2018-12-13T03:08:18.658Z,0.39
2018-12-13T03:10:47.514Z,0.34
2018-12-13T03:13:16.329Z,0.32
2018-12-13T03:15:45.202Z,0.20
2018-12-13T03:18:14.187Z,0.07
2018-12-13T03:20:43.010Z,0.06
2018-12-13T03:23:12.017Z,0.12
2018-12-13T03:25:40.869Z,0.13
2018-12-13T03:28:09.668Z,-0.02
2018-12-13T03:30:38.544Z,-0.11
2018-12-13T03:33:07.378Z,-0.43
2018-12-13T03:35:36.277Z,-0.48
2018-12-13T03:38:05.239Z,-0.42
2018-12-13T03:40:34.177Z,-0.35
2018-12-13T03:43:03.050Z,-0.26
2018-12-13T03:45:31.892Z,-0.36
2018-12-13T03:48:00.769Z,-0.33
2018-12-13T03:50:29.612Z,-0.30
2018-12-13T03:52:58.431Z,-0.20
2018-12-13T03:55:27.472Z,-0.14
2018-12-13T03:57:56.267Z,0.00
2018-12-13T04:00:25.195Z,0.09
2018-12-13T04:02:54.066Z,0.09
2018-12-13T04:05:22.885Z,0.03
2018-12-13T04:07:51.760Z,0.06
2018-12-13T04:10:20.608Z,0.11
2018-12-13T04:12:49.432Z,0.13
2018-12-13T04:15:18.349Z,0.15
2018-12-13T04:17:47.246Z,0.16
2018-12-13T04:20:16.172Z,0.14
2018-12-13T04:22:45.010Z,0.10
2018-12-13T04:25:14.009Z,-0.03
2018-12-13T04:27:42.858Z,-0.05
2018-12-13T04:30:11.717Z,-0.04
2018-12-13T04:32:40.580Z,-0.01
2018-12-13T04:35:09.414Z,-0.07
2018-12-13T04:37:38.261Z,-0.12
2018-12-13T04:40:08.602Z,-0.02
2018-12-13T04:42:37.465Z,-0.19
2018-12-13T04:45:06.817Z,-0.22
2018-12-13T04:47:35.710Z,-0.28
2018-12-13T04:50:05.650Z,-0.33
2018-12-13T04:52:34.473Z,-0.39
2018-12-13T04:55:03.320Z,-0.46
2018-12-13T04:57:32.165Z,-0.41
2018-12-13T05:00:01.049Z,-0.37
2018-12-13T05:02:29.901Z,-0.21
2018-12-13T05:05:07.035Z,-0.11
2018-12-13T05:07:41.489Z,-0.15
2018-12-13T05:10:06.900Z,-0.11
2018-12-13T05:12:36.994Z,-0.30
2018-12-13T05:15:06.026Z,-0.25
2018-12-13T05:17:35.645Z,-0.25
2018-12-13T05:20:05.120Z,-0.17
2018-12-13T05:22:33.927Z,-0.06
2018-12-13T05:25:02.831Z,0.02
2018-12-13T05:27:31.635Z,0.07
2018-12-13T05:30:00.469Z,-0.01
2018-12-13T05:32:29.385Z,-0.02
2018-12-13T05:34:58.242Z,0.02
2018-12-13T05:37:27.066Z,-0.05
2018-12-13T05:39:55.934Z,-0.01
2018-12-13T05:42:24.771Z,0.00
2018-12-13T05:44:53.665Z,0.08
2018-12-13T05:47:23.945Z,0.13
2018-12-13T05:49:52.786Z,0.21
2018-12-13T05:52:22.154Z,0.19
2018-12-13T05:54:51.063Z,0.28
2018-12-13T05:57:19.912Z,0.22
2018-12-13T05:59:48.733Z,0.32
2018-12-13T06:02:18.937Z,0.31
2018-12-13T06:04:47.819Z,0.35
2018-12-13T06:07:16.648Z,0.37
2018-12-13T06:09:47.013Z,0.32
2018-12-13T06:12:15.914Z,0.19
2018-12-13T06:14:44.761Z,-0.07
2018-12-13T06:17:13.657Z,-0.13
2018-12-13T06:19:42.625Z,-0.30
2018-12-13T06:22:11.473Z,-0.44
2018-12-13T06:24:40.372Z,-0.44
2018-12-13T06:27:09.250Z,-0.43
2018-12-13T06:29:41.859Z,-0.30
2018-12-13T06:32:09.163Z,-0.31
2018-12-13T06:34:37.985Z,-0.42
2018-12-13T06:37:06.887Z,-0.49
2018-12-13T06:39:35.851Z,-0.52
2018-12-13T06:42:04.785Z,-0.60
2018-12-13T06:44:33.639Z,-0.51
2018-12-13T06:47:03.972Z,-0.47
2018-12-13T06:49:32.821Z,-0.39
2018-12-13T06:52:01.648Z,-0.29
2018-12-13T06:54:30.533Z,-0.16
2018-12-13T06:57:00.623Z,-0.06
2018-12-13T06:59:29.576Z,0.02
2018-12-13T07:01:58.578Z,-0.17
2018-12-13T07:04:27.462Z,0.25
2018-12-13T07:06:56.337Z,0.37
2018-12-13T07:09:25.188Z,0.45
2018-12-13T07:11:54.013Z,0.57
2018-12-13T07:14:22.870Z,0.76
2018-12-13T07:16:51.721Z,0.87
2018-12-13T07:19:20.570Z,0.92
2018-12-13T07:21:49.412Z,0.98
2018-12-13T07:24:18.300Z,1.04
2018-12-13T07:26:47.137Z,1.10
2018-12-13T07:29:16.004Z,1.14
2018-12-13T07:31:45.017Z,1.24
2018-12-13T07:34:13.861Z,1.28
2018-12-13T07:36:43.626Z,1.17
2018-12-13T07:39:12.642Z,1.17
2018-12-13T07:41:41.465Z,1.24
2018-12-13T07:44:10.277Z,1.39
2018-12-13T07:46:39.159Z,1.55
2018-12-13T07:49:07.969Z,1.73
2018-12-13T07:51:36.814Z,1.82
2018-12-13T07:54:05.681Z,1.99
2018-12-13T07:56:34.534Z,2.08
2018-12-13T07:59:03.380Z,2.16
2018-12-13T08:01:32.652Z,2.07
2018-12-13T08:04:01.817Z,2.20
2018-12-13T08:06:30.655Z,2.34
2018-12-13T08:08:59.546Z,2.44
2018-12-13T08:11:28.390Z,2.42
2018-12-13T08:13:57.237Z,2.46
2018-12-13T08:16:26.089Z,2.48
2018-12-13T08:18:55.824Z,2.54
2018-12-13T08:21:24.652Z,2.62
2018-12-13T08:23:53.533Z,2.73
2018-12-13T08:26:22.365Z,2.74
2018-12-13T08:28:51.399Z,2.79
2018-12-13T08:31:21.506Z,2.75
2018-12-13T08:33:50.841Z,2.76
2018-12-13T08:36:19.673Z,2.86
2018-12-13T08:38:48.736Z,3.00
2018-12-13T08:41:17.554Z,3.05
2018-12-13T08:43:46.424Z,3.11
2018-12-13T08:46:15.306Z,3.26
2018-12-13T08:48:44.210Z,3.41
2018-12-13T08:51:13.117Z,3.45
2018-12-13T08:53:42.412Z,3.65
2018-12-13T08:56:11.245Z,3.64
2018-12-13T08:58:40.128Z,3.71
2018-12-13T09:01:09.142Z,3.92
2018-12-13T09:03:37.962Z,4.11
2018-12-13T09:06:08.099Z,4.08
2018-12-13T09:08:36.907Z,4.18
2018-12-13T09:11:05.728Z,4.25
2018-12-13T09:13:34.674Z,4.29
2018-12-13T09:16:03.569Z,4.39
2018-12-13T09:18:32.418Z,4.55
2018-12-13T09:21:01.380Z,4.56
2018-12-13T09:23:30.346Z,4.48
2018-12-13T09:26:05.608Z,4.51
2018-12-13T09:28:34.441Z,4.60
2018-12-13T09:31:03.281Z,4.57
2018-12-13T09:33:32.147Z,4.73
2018-12-13T09:36:01.061Z,4.77
2018-12-13T09:38:29.960Z,4.87
2018-12-13T09:40:58.814Z,4.90
2018-12-13T09:43:27.641Z,5.05
2018-12-13T09:45:56.606Z,5.08
2018-12-13T09:48:25.440Z,5.05
2018-12-13T09:50:54.248Z,5.26
2018-12-13T09:53:23.141Z,5.35
2018-12-13T09:55:51.969Z,5.41
2018-12-13T09:58:20.862Z,5.36
2018-12-13T10:00:50.703Z,5.42
2018-12-13T10:03:19.534Z,5.50
2018-12-13T10:05:48.402Z,5.50
2018-12-13T10:08:17.252Z,5.50
2018-12-13T10:10:46.129Z,5.53
2018-12-13T10:13:14.965Z,5.65
2018-12-13T10:15:43.826Z,5.79
2018-12-13T10:18:12.670Z,5.90
2018-12-13T10:20:41.505Z,5.91
2018-12-13T10:23:10.549Z,6.18
2018-12-13T10:28:13.484Z,6.11
2018-12-13T10:30:42.423Z,6.26
2018-12-13T10:33:11.331Z,6.47
2018-12-13T10:35:40.133Z,6.43
2018-12-13T10:38:08.982Z,6.35
2018-12-13T10:40:37.773Z,6.49
2018-12-13T10:43:06.597Z,6.53
2018-12-13T10:45:35.436Z,6.63
2018-12-13T10:48:04.261Z,6.82
2018-12-13T10:50:33.204Z,6.98
2018-12-13T10:53:02.043Z,7.08
2018-12-13T10:55:30.837Z,7.15
2018-12-13T10:57:59.814Z,7.27
2018-12-13T11:00:33.627Z,7.31
2018-12-13T11:03:26.465Z,7.24
2018-12-13T11:05:55.299Z,7.00
2018-12-13T11:08:24.177Z,6.98
2018-12-13T11:10:53.091Z,7.00
2018-12-13T11:13:21.929Z,7.05
2018-12-13T11:15:50.783Z,7.06
2018-12-13T11:18:19.703Z,7.19
2018-12-13T11:20:48.581Z,7.39
2018-12-13T11:23:17.703Z,7.34
2018-12-13T11:25:46.592Z,7.41
2018-12-13T11:28:26.444Z,7.40
2018-12-13T11:30:55.329Z,7.45
2018-12-13T11:33:24.357Z,7.13
2018-12-13T11:35:53.189Z,7.22
2018-12-13T11:38:22.053Z,7.40
2018-12-13T11:40:50.893Z,7.38
2018-12-13T11:43:19.709Z,7.54
2018-12-13T11:45:48.623Z,7.45
2018-12-13T11:48:17.501Z,7.51
2018-12-13T11:50:46.352Z,7.63
2018-12-13T11:53:15.388Z,7.69
2018-12-13T11:55:45.997Z,7.66
2018-12-13T11:58:17.142Z,7.78
2018-12-13T12:00:47.264Z,7.69
2018-12-13T12:03:16.114Z,7.77
2018-12-13T12:05:45.094Z,7.70
2018-12-13T12:08:13.992Z,7.77
2018-12-13T12:10:42.854Z,7.77
2018-12-13T12:13:11.735Z,7.85
2018-12-13T12:15:40.674Z,7.81
2018-12-13T12:18:09.511Z,7.66
2018-12-13T12:20:38.367Z,7.82
2018-12-13T12:23:07.245Z,7.68
2018-12-13T12:25:36.189Z,7.77
2018-12-13T12:28:05.124Z,7.74
2018-12-13T12:30:34.156Z,7.80
2018-12-13T12:33:03.046Z,7.83
2018-12-13T12:35:31.879Z,7.82
2018-12-13T12:38:00.850Z,7.79
2018-12-13T12:40:29.694Z,7.82
2018-12-13T12:42:58.501Z,7.84
2018-12-13T12:45:27.568Z,7.78
2018-12-13T12:47:56.417Z,7.83
2018-12-13T12:50:25.286Z,7.76
2018-12-13T12:52:54.141Z,7.71
2018-12-13T12:55:22.953Z,7.69
2018-12-13T12:57:51.824Z,7.67
2018-12-13T13:00:20.706Z,7.66
2018-12-13T13:02:49.562Z,7.65
2018-12-13T13:05:18.405Z,7.66
2018-12-13T13:07:48.584Z,7.67
2018-12-13T13:10:17.406Z,7.71
2018-12-13T13:12:48.933Z,7.72
2018-12-13T13:15:17.753Z,7.77
2018-12-13T13:17:46.569Z,7.72
2018-12-13T13:20:15.457Z,7.69
2018-12-13T13:22:45.773Z,7.70
2018-12-13T13:25:15.082Z,7.61
2018-12-13T13:27:43.876Z,7.61
2018-12-13T13:30:12.777Z,7.61
2018-12-13T13:32:41.597Z,7.59
2018-12-13T13:35:10.486Z,7.54
2018-12-13T13:37:40.830Z,7.47
2018-12-13T13:40:09.631Z,7.48
2018-12-13T13:42:38.438Z,7.48
2018-12-13T13:45:08.739Z,7.43
2018-12-13T13:47:38.299Z,7.39
2018-12-13T13:50:07.208Z,7.32
2018-12-13T13:52:36.091Z,7.26
2018-12-13T13:55:05.517Z,7.21
2018-12-13T13:57:34.369Z,7.17
2018-12-13T14:00:03.281Z,7.09
2018-12-13T14:02:32.145Z,7.01
2018-12-13T14:05:00.978Z,6.94
2018-12-13T14:07:29.851Z,6.84
2018-12-13T14:09:58.735Z,6.79
2018-12-13T14:12:27.558Z,6.73
2018-12-13T14:14:56.403Z,6.60
2018-12-13T14:17:25.345Z,6.55
2018-12-13T14:19:54.160Z,6.45
2018-12-13T14:22:23.023Z,6.38
2018-12-13T14:24:51.932Z,6.34
2018-12-13T14:27:20.824Z,6.26
2018-12-13T14:29:49.674Z,6.21
2018-12-13T14:32:18.690Z,6.20
2018-12-13T14:34:47.514Z,6.15
2018-12-13T14:37:16.423Z,6.13
2018-12-13T14:39:45.313Z,6.06
2018-12-13T14:42:14.315Z,5.89
2018-12-13T14:44:43.154Z,5.78
2018-12-13T14:47:13.269Z,5.71
2018-12-13T14:49:42.093Z,5.58
2018-12-13T14:52:10.937Z,5.45
2018-12-13T14:54:41.220Z,5.52
2018-12-13T14:57:10.084Z,5.53
2018-12-13T14:59:38.893Z,5.46
2018-12-13T15:02:07.780Z,5.70
2018-12-13T15:04:36.641Z,5.75
2018-12-13T15:07:05.573Z,5.60
2018-12-13T15:09:35.997Z,5.50
2018-12-13T15:12:04.889Z,5.45
2018-12-13T15:14:33.778Z,5.41
2018-12-13T15:17:02.721Z,5.33
2018-12-13T15:19:31.740Z,5.31
2018-12-13T15:22:00.672Z,5.23
2018-12-13T15:24:29.549Z,5.27
2018-12-13T15:26:58.361Z,5.26
2018-12-13T15:29:27.904Z,5.15
2018-12-13T15:31:59.598Z,5.18
2018-12-13T15:34:28.149Z,5.23
2018-12-13T15:36:57.023Z,5.22
2018-12-13T15:39:25.874Z,5.26
2018-12-13T15:41:54.770Z,5.15
2018-12-13T15:44:23.626Z,5.09
2018-12-13T15:46:52.724Z,5.16
2018-12-13T15:49:23.610Z,5.12
2018-12-13T15:51:52.576Z,5.10
2018-12-13T15:54:21.425Z,4.86
2018-12-13T15:56:50.322Z,4.84
2018-12-13T15:59:19.133Z,4.91
2018-12-13T16:01:47.930Z,4.80
2018-12-13T16:04:17.980Z,4.79
2018-12-13T16:06:46.777Z,4.79
2018-12-13T16:09:15.709Z,4.69
2018-12-13T16:11:44.566Z,4.62
2018-12-13T16:14:15.410Z,4.57
2018-12-13T16:16:44.353Z,4.55
2018-12-13T16:19:13.228Z,4.55
2018-12-13T16:21:42.064Z,4.56
2018-12-13T16:24:10.869Z,4.57
2018-12-13T16:26:41.076Z,4.56
2018-12-13T16:29:09.873Z,4.57
2018-12-13T16:31:38.700Z,4.56
2018-12-13T16:34:07.557Z,4.51
2018-12-13T16:36:36.696Z,4.42
2018-12-13T16:39:07.667Z,4.37
2018-12-13T16:41:36.619Z,4.33
2018-12-13T16:44:05.640Z,4.27
2018-12-13T16:46:34.527Z,4.24
2018-12-13T16:49:03.397Z,4.28
2018-12-13T16:51:33.701Z,4.27
2018-12-13T16:54:02.693Z,4.29
2018-12-13T16:56:31.554Z,4.43
2018-12-13T16:59:00.403Z,4.51
2018-12-13T17:01:30.755Z,4.49
2018-12-13T17:03:59.614Z,4.55
2018-12-13T17:06:28.640Z,4.64
2018-12-13T17:08:57.589Z,4.53
2018-12-13T17:11:26.448Z,4.43
2018-12-13T17:13:55.249Z,4.27
2018-12-13T17:16:24.143Z,4.03
2018-12-13T17:18:52.979Z,4.04
2018-12-13T17:21:21.944Z,4.01
2018-12-13T17:23:50.826Z,3.99
2018-12-13T17:26:19.679Z,4.10
2018-12-13T17:28:48.508Z,4.32
2018-12-13T17:31:17.359Z,3.94
2018-12-13T17:33:46.223Z,3.89
2018-12-13T17:36:15.209Z,4.14
2018-12-13T17:38:44.073Z,4.34
2018-12-13T17:41:13.155Z,4.48
2018-12-13T17:43:41.992Z,4.42
2018-12-13T17:46:10.832Z,4.43
2018-12-13T17:48:40.812Z,4.57
2018-12-13T17:51:09.693Z,4.73
2018-12-13T17:53:41.197Z,4.71
2018-12-13T17:56:10.061Z,4.70
2018-12-13T17:58:38.913Z,4.64
2018-12-13T18:01:07.935Z,4.62
2018-12-13T18:03:36.760Z,4.49
2018-12-13T18:06:06.405Z,4.42
2018-12-13T18:08:35.301Z,4.52
2018-12-13T18:11:04.491Z,4.37
2018-12-13T18:13:33.457Z,4.20
2018-12-13T18:16:02.496Z,4.07
2018-12-13T18:18:31.338Z,4.10
2018-12-13T18:21:00.217Z,4.30
2018-12-13T18:23:29.044Z,4.53
2018-12-13T18:25:57.884Z,4.60
2018-12-13T18:28:26.742Z,4.61
2018-12-13T18:30:55.565Z,4.34
2018-12-13T18:33:24.405Z,3.98
2018-12-13T18:35:54.570Z,3.94
2018-12-13T18:38:23.393Z,3.88
2018-12-13T18:40:52.252Z,3.80
2018-12-13T18:43:21.500Z,4.07
2018-12-13T18:45:50.560Z,4.07
2018-12-13T18:48:20.356Z,4.00
2018-12-13T18:50:49.182Z,3.87
2018-12-13T18:53:17.999Z,3.86
2018-12-13T18:55:46.841Z,3.80
2018-12-13T18:58:15.752Z,3.59
2018-12-13T19:00:44.604Z,3.49
2018-12-13T19:03:13.426Z,3.34
2018-12-13T19:05:42.293Z,3.17
2018-12-13T19:08:11.184Z,3.03
2018-12-13T19:10:42.001Z,3.00
2018-12-13T19:13:10.953Z,2.89
2018-12-13T19:15:39.798Z,2.80
2018-12-13T19:18:08.859Z,2.67
2018-12-13T19:20:37.703Z,2.54
2018-12-13T19:23:06.574Z,2.38
2018-12-13T19:25:35.445Z,2.21
2018-12-13T19:28:04.433Z,2.09
2018-12-13T19:30:33.325Z,2.14
2018-12-13T19:33:02.156Z,2.22
2018-12-13T19:35:31.021Z,2.25
2018-12-13T19:38:01.375Z,2.37
2018-12-13T19:40:31.237Z,2.37
2018-12-13T19:43:00.077Z,2.60
2018-12-13T19:45:29.060Z,2.60
2018-12-13T19:47:57.888Z,2.60
2018-12-13T19:50:26.889Z,2.69
2018-12-13T19:52:55.711Z,2.67
2018-12-13T19:55:25.981Z,2.73
2018-12-13T19:57:54.821Z,2.80
2018-12-13T20:00:25.017Z,2.72
2018-12-13T20:02:53.839Z,2.64
2018-12-13T20:05:22.675Z,2.56
2018-12-13T20:07:51.588Z,2.55
2018-12-13T20:10:20.550Z,2.62
2018-12-13T20:12:49.358Z,2.72
2018-12-13T20:15:24.089Z,2.77
2018-12-13T20:17:50.337Z,2.66
2018-12-13T20:20:19.237Z,2.58
2018-12-13T20:22:48.126Z,2.50
2018-12-13T20:25:16.946Z,2.38
2018-12-13T20:27:45.758Z,2.24
2018-12-13T20:30:14.638Z,2.14
2018-12-13T20:32:43.584Z,1.95
2018-12-13T20:35:12.819Z,1.75
2018-12-13T20:37:41.674Z,1.66
2018-12-13T20:40:10.642Z,1.51
2018-12-13T20:42:39.472Z,1.58
2018-12-13T20:45:10.424Z,1.38
2018-12-13T20:47:39.590Z,1.31
2018-12-13T20:50:08.484Z,1.30
2018-12-13T20:52:37.377Z,1.23
2018-12-13T20:55:06.607Z,1.05
2018-12-13T20:57:35.426Z,1.03
2018-12-13T21:00:06.926Z,1.15
2018-12-13T21:02:35.809Z,1.30
2018-12-13T21:05:06.129Z,1.08
2018-12-13T21:07:35.484Z,0.97
2018-12-13T21:10:09.064Z,1.26
2018-12-13T21:12:38.211Z,1.44
2018-12-13T21:15:08.929Z,1.39
2018-12-13T21:17:38.004Z,1.34
2018-12-13T21:20:06.990Z,1.32
2018-12-13T21:22:35.831Z,1.16
2018-12-13T21:25:04.911Z,1.10
2018-12-13T21:27:33.776Z,1.13
2018-12-13T21:30:02.614Z,1.03
2018-12-13T21:32:31.436Z,1.00
2018-12-13T21:35:00.785Z,1.00
2018-12-13T21:37:29.625Z,1.06
2018-12-13T21:39:58.464Z,1.03
2018-12-13T21:42:27.365Z,0.99
2018-12-13T21:44:56.164Z,1.07
2018-12-13T21:47:24.990Z,0.91
2018-12-13T21:49:53.865Z,0.88
2018-12-13T21:52:22.676Z,0.95
2018-12-13T21:54:51.525Z,0.83
2018-12-13T21:57:21.454Z,0.93
2018-12-13T21:59:50.383Z,0.94
2018-12-13T22:02:19.228Z,0.99
2018-12-13T22:04:48.095Z,0.92
2018-12-13T22:07:23.138Z,0.97
2018-12-13T22:09:52.004Z,0.98
2018-12-13T22:12:20.823Z,1.02
2018-12-13T22:14:49.646Z,0.87
2018-12-13T22:17:18.516Z,0.89
2018-12-13T22:19:47.355Z,0.80
2018-12-13T22:22:16.189Z,0.82
2018-12-13T22:24:45.077Z,0.75
2018-12-13T22:27:13.912Z,0.60
2018-12-13T22:29:42.748Z,0.40
2018-12-13T22:32:12.938Z,0.36
2018-12-13T22:34:42.129Z,0.44
2018-12-13T22:37:11.162Z,0.40
2018-12-13T22:39:40.088Z,0.55
2018-12-13T22:42:08.929Z,0.63
2018-12-13T22:44:37.785Z,0.51
2018-12-13T22:47:06.636Z,0.54
2018-12-13T22:49:35.442Z,0.48
2018-12-13T22:52:05.725Z,0.35
2018-12-13T22:54:34.588Z,0.41
2018-12-13T22:57:03.524Z,0.34
2018-12-13T22:59:32.362Z,0.31
2018-12-13T23:02:01.309Z,0.26
2018-12-13T23:04:30.181Z,0.30
2018-12-13T23:06:59.040Z,0.33
2018-12-13T23:09:28.064Z,0.32
2018-12-13T23:11:57.586Z,0.25
2018-12-13T23:14:26.568Z,0.24
2018-12-13T23:16:55.420Z,0.13
2018-12-13T23:19:24.303Z,0.18
2018-12-13T23:21:53.249Z,0.04
2018-12-13T23:24:22.093Z,0.03
2018-12-13T23:26:50.977Z,0.04
2018-12-13T23:29:19.794Z,-0.08
2018-12-13T23:31:48.821Z,-0.21
2018-12-13T23:34:17.696Z,-0.25
2018-12-13T23:36:46.536Z,-0.20
2018-12-13T23:39:15.684Z,-0.03
2018-12-13T23:41:44.531Z,0.01
2018-12-13T23:44:13.423Z,-0.09
2018-12-13T23:46:42.298Z,-0.21
2018-12-13T23:49:11.120Z,-0.21
2018-12-13T23:51:39.968Z,-0.30
2018-12-13T23:54:08.952Z,-0.26
2018-12-13T23:56:40.018Z,-0.24
2018-12-13T23:59:09.150Z,-0.19
